Terminal Aerodrome Forecast
Issued by NWS

Home | Current Version | Previous Version | Text Only | Print | Product List | Glossary On
Versions: 1 2 3 4 5 6 7 8 9 10 11 12 13 14 15
000
FTUS43 KLSX 111730
TAFUIN
TAF
KUIN 111730Z 1118/1218 27016G25KT P6SM BKN200
     FM112100 30023G33KT P6SM BKN040
     FM120000 31019G34KT P6SM OVC025
     FM120600 33020G27KT P6SM SCT025
     FM120900 33014G24KT P6SM FEW130=

USA.gov is the U.S. government's official web portal to all federal, state and local government web resources and services.